Time;durP1;ratioP1;P1;durP2;ratioP2;P2;SDS_P1;SDS_P2;PMS_P1;PMS_P2;Temp;Humidity;BMP_temperature;BMP_pressure;BME280_temperature;BME280_humidity;BME280_pressure;Samples;Min_cycle;Max_cycle;Signal;HPM_P1;HPM_P2
2023/09/20 00:01:14;;;;;;;6.70;4.07;;;;;;;18.79;75.69;94852.84;4192543;28;20569;-75
2023/09/20 00:03:16;;;;;;;6.55;3.90;;;;;;;18.79;76.68;94852.84;4174245;28;20114;-75
2023/09/20 00:05:21;;;;;;;4.68;4.00;;;;;;;18.80;76.69;94846.53;4180440;28;20044;-76
2023/09/20 00:07:23;;;;;;;5.55;3.97;;;;;;;18.68;77.04;94850.78;4193074;28;20395;-75
2023/09/20 00:09:25;;;;;;;6.57;3.92;;;;;;;18.58;77.13;94845.91;4188240;28;20054;-76
2023/09/20 00:11:27;;;;;;;8.27;4.03;;;;;;;18.53;77.31;94850.19;4191056;28;20056;-75
2023/09/20 00:13:28;;;;;;;6.57;4.18;;;;;;;18.39;77.94;94846.72;4190065;28;20052;-75
2023/09/20 00:15:30;;;;;;;7.40;4.07;;;;;;;18.42;78.41;94852.44;4183517;28;20095;-74
2023/09/20 00:17:34;;;;;;;7.82;4.68;;;;;;;18.46;78.51;94852.03;4185971;28;20076;-75
2023/09/20 00:19:38;;;;;;;5.60;4.35;;;;;;;18.31;78.66;94853.03;4189467;28;20087;-74
2023/09/20 00:21:40;;;;;;;8.63;4.90;;;;;;;18.07;79.62;94856.25;4191884;28;20094;-73
2023/09/20 00:23:42;;;;;;;7.15;5.05;;;;;;;18.08;80.42;94860.56;4171527;28;20568;-74
2023/09/20 00:25:44;;;;;;;5.60;5.07;;;;;;;18.11;80.76;94849.53;4174800;28;20043;-75
2023/09/20 00:27:46;;;;;;;6.68;5.30;;;;;;;18.20;80.66;94853.66;4189730;28;20502;-73
2023/09/20 00:29:49;;;;;;;5.63;5.03;;;;;;;18.30;80.38;94856.69;4193316;28;20049;-76
2023/09/20 00:31:51;;;;;;;13.30;5.13;;;;;;;18.37;79.62;94862.84;4192171;28;20049;-76
2023/09/20 00:33:53;;;;;;;7.22;5.88;;;;;;;18.42;79.57;94864.88;4173830;28;20464;-76
2023/09/20 00:35:54;;;;;;;7.68;5.78;;;;;;;18.44;79.10;94859.38;4186693;28;20048;-75
2023/09/20 00:37:57;;;;;;;8.25;4.57;;;;;;;18.50;79.15;94864.69;4188872;28;20327;-76
2023/09/20 00:39:59;;;;;;;7.25;5.05;;;;;;;18.52;78.48;94861.81;4193898;28;20060;-74
2023/09/20 00:42:01;;;;;;;6.72;5.38;;;;;;;18.50;78.15;94853.25;4177549;28;20057;-75
2023/09/20 00:44:03;;;;;;;9.20;5.95;;;;;;;18.50;78.02;94858.53;4194411;28;20055;-74
2023/09/20 00:46:07;;;;;;;10.70;5.88;;;;;;;18.44;77.99;94860.19;4196386;28;20547;-75
2023/09/20 00:48:12;;;;;;;12.40;7.63;;;;;;;18.31;78.17;94845.09;4199791;28;20049;-74
2023/09/20 00:50:15;;;;;;;12.27;7.82;;;;;;;18.32;78.69;94852.00;4194307;28;20048;-76
2023/09/20 00:52:18;;;;;;;9.57;8.15;;;;;;;18.34;78.73;94846.50;4195193;28;20052;-77
2023/09/20 00:54:21;;;;;;;11.23;9.70;;;;;;;18.36;78.91;94855.88;4196272;28;20060;-74
2023/09/20 00:56:23;;;;;;;13.32;10.38;;;;;;;18.30;79.00;94854.03;4167687;28;20515;-73
2023/09/20 00:58:25;;;;;;;21.67;10.77;;;;;;;18.27;78.90;94849.16;4179440;28;20136;-76
2023/09/20 01:00:27;;;;;;;15.63;11.35;;;;;;;18.28;79.43;94850.78;4194328;28;20080;-73
2023/09/20 01:02:30;;;;;;;19.85;11.65;;;;;;;18.31;79.50;94852.25;4187714;28;20053;-74
2023/09/20 01:04:34;;;;;;;21.65;12.98;;;;;;;18.33;79.56;94852.84;4173129;28;20086;-76
2023/09/20 01:06:36;;;;;;;32.33;14.93;;;;;;;18.32;79.14;94853.84;4182372;28;20084;-74
2023/09/20 01:08:38;;;;;;;20.15;15.27;;;;;;;18.29;79.54;94852.44;4182225;28;20041;-74
2023/09/20 01:10:40;;;;;;;17.80;14.15;;;;;;;18.26;79.86;94852.00;4184677;28;20316;-73
2023/09/20 01:12:43;;;;;;;26.80;16.23;;;;;;;18.21;79.88;94853.44;4191108;28;20403;-75
2023/09/20 01:14:45;;;;;;;21.08;15.82;;;;;;;18.17;80.25;94854.84;4196854;28;20086;-77
2023/09/20 01:16:47;;;;;;;55.72;19.30;;;;;;;18.15;80.36;94856.06;4193125;28;20060;-73
2023/09/20 01:18:50;;;;;;;20.58;15.50;;;;;;;18.14;80.47;94849.16;4192897;28;20490;-75
2023/09/20 01:20:52;;;;;;;20.52;15.95;;;;;;;18.11;80.47;94839.78;4175216;28;20043;-76
2023/09/20 01:22:56;;;;;;;18.25;15.70;;;;;;;18.16;80.59;94834.66;4201100;28;20126;-74
2023/09/20 01:24:58;;;;;;;20.20;16.13;;;;;;;18.16;80.32;94839.16;4200314;28;20044;-76
2023/09/20 01:27:05;;;;;;;29.80;16.30;;;;;;;18.18;80.23;94839.78;4177477;28;20057;-76
2023/09/20 01:29:07;;;;;;;20.30;15.70;;;;;;;18.17;80.38;94843.44;4187562;28;20088;-75
2023/09/20 01:31:10;;;;;;;30.73;18.10;;;;;;;18.18;80.39;94845.09;4196235;28;20526;-73
2023/09/20 01:33:12;;;;;;;23.00;16.37;;;;;;;18.17;80.30;94854.84;4189142;28;20071;-74
2023/09/20 01:35:16;;;;;;;18.95;16.25;;;;;;;18.16;80.51;94853.22;4188535;28;20083;-75
2023/09/20 01:37:19;;;;;;;29.27;18.35;;;;;;;18.17;80.23;94854.84;4195094;28;20560;-74
2023/09/20 01:39:20;;;;;;;25.75;20.83;;;;;;;18.15;80.26;94856.88;4195642;28;20072;-74
2023/09/20 01:41:22;;;;;;;25.13;20.63;;;;;;;18.14;80.41;94857.91;4188714;28;20080;-74
2023/09/20 01:43:24;;;;;;;25.45;20.20;;;;;;;18.11;80.56;94862.78;4170428;28;20157;-76
2023/09/20 01:45:27;;;;;;;30.10;22.15;;;;;;;18.07;80.04;94862.41;4195800;28;20050;-75
2023/09/20 01:47:28;;;;;;;33.10;22.50;;;;;;;18.02;80.39;94859.53;4184614;28;20083;-75
2023/09/20 01:49:34;;;;;;;28.88;21.55;;;;;;;18.04;80.34;94854.84;4182353;28;20460;-74
2023/09/20 01:51:36;;;;;;;30.02;24.25;;;;;;;18.06;80.33;94859.94;4176882;28;20052;-75
2023/09/20 01:53:38;;;;;;;28.80;20.08;;;;;;;18.07;79.65;94853.63;4194513;28;20388;-74
2023/09/20 01:55:42;;;;;;;27.48;21.92;;;;;;;18.11;79.78;94849.53;4194368;28;20107;-75
2023/09/20 01:57:45;;;;;;;27.85;20.23;;;;;;;18.08;79.71;94842.00;4184160;28;20095;-75
2023/09/20 01:59:47;;;;;;;25.48;19.10;;;;;;;18.11;79.48;94844.25;4194671;28;20133;-75
2023/09/20 02:01:50;;;;;;;23.25;18.85;;;;;;;18.08;79.19;94844.66;4199818;28;20119;-75
2023/09/20 02:03:52;;;;;;;25.67;20.00;;;;;;;18.08;79.42;94844.66;4186256;28;20045;-73
2023/09/20 02:05:56;;;;;;;42.40;19.02;;;;;;;17.83;80.28;94849.69;4194058;28;20480;-75
2023/09/20 02:07:57;;;;;;;42.05;17.67;;;;;;;17.74;81.20;94841.88;4194855;28;20196;-75
2023/09/20 02:10:00;;;;;;;25.92;17.75;;;;;;;17.72;81.75;94846.56;4200021;28;20048;-75
2023/09/20 02:12:02;;;;;;;24.67;17.48;;;;;;;17.72;82.03;94845.75;4188727;28;20045;-77
2023/09/20 02:14:05;;;;;;;23.05;18.17;;;;;;;17.72;82.16;94851.06;4193920;28;20056;-75
2023/09/20 02:16:07;;;;;;;26.23;18.75;;;;;;;17.76;82.08;94842.50;4192014;28;20115;-75
2023/09/20 02:18:09;;;;;;;37.35;18.35;;;;;;;17.81;81.92;94839.28;4177362;28;20049;-75
2023/09/20 02:20:19;;;;;;;23.63;18.80;;;;;;;17.88;81.77;94848.09;4187503;28;20111;-75
2023/09/20 02:22:21;;;;;;;22.42;18.23;;;;;;;17.91;81.42;94849.50;4183041;28;20052;-75
2023/09/20 02:24:23;;;;;;;26.88;17.77;;;;;;;17.94;81.51;94849.94;4194104;28;20145;-76
2023/09/20 02:26:26;;;;;;;23.02;16.30;;;;;;;17.97;81.12;94849.53;4193856;28;20098;-73
2023/09/20 02:28:28;;;;;;;20.27;16.57;;;;;;;17.97;81.17;94846.88;4192880;28;20050;-75
2023/09/20 02:30:35;;;;;;;23.13;17.70;;;;;;;17.97;81.36;94856.66;4192094;28;20483;-76
2023/09/20 02:32:38;;;;;;;22.85;17.10;;;;;;;18.00;80.95;94850.94;4174009;28;20096;-74
2023/09/20 02:34:40;;;;;;;21.15;15.30;;;;;;;18.04;80.73;94854.84;4197859;28;20045;-76
2023/09/20 02:36:44;;;;;;;20.60;16.10;;;;;;;17.97;80.00;94854.81;4198079;28;20037;-73
2023/09/20 02:38:46;;;;;;;21.80;15.32;;;;;;;18.01;80.24;94863.19;4202368;28;20048;-75
2023/09/20 02:40:50;;;;;;;17.30;14.07;;;;;;;18.04;80.26;94867.28;4188679;28;20119;-74
2023/09/20 02:42:54;;;;;;;;;;;;;;;18.00;79.99;94867.69;4194147;28;20496;-74
2023/09/20 02:44:56;;;;;;;19.58;13.38;;;;;;;18.00;79.80;94865.03;4193581;28;19932;-74
2023/09/20 02:46:58;;;;;;;18.77;13.38;;;;;;;17.99;80.06;94859.94;4192503;28;20114;-74
2023/09/20 02:49:00;;;;;;;19.42;14.73;;;;;;;18.00;79.86;94858.91;4169748;28;20053;-75
2023/09/20 02:51:03;;;;;;;20.27;14.15;;;;;;;18.01;79.73;94864.00;4198837;28;20070;-73
2023/09/20 02:53:07;;;;;;;23.08;14.52;;;;;;;18.00;79.53;94864.19;4198984;28;20048;-74
2023/09/20 02:55:13;;;;;;;23.83;15.07;;;;;;;17.98;79.56;94860.94;4195947;28;20052;-74
2023/09/20 02:57:16;;;;;;;19.23;14.32;;;;;;;17.98;79.59;94867.06;4205927;28;20052;-74
2023/09/20 02:59:20;;;;;;;22.42;13.48;;;;;;;17.98;79.42;94869.72;4206569;28;20623;-72
2023/09/20 03:01:21;;;;;;;19.17;13.63;;;;;;;17.97;79.23;94860.13;4197997;28;20049;-73
2023/09/20 03:03:23;;;;;;;20.08;13.45;;;;;;;17.99;79.43;94863.41;4196339;28;20049;-73
2023/09/20 03:05:27;;;;;;;17.30;12.23;;;;;;;17.98;79.20;94864.44;4194799;28;20078;-75
2023/09/20 03:07:30;;;;;;;18.77;13.02;;;;;;;17.95;78.78;94862.16;4176572;28;20135;-75
2023/09/20 03:09:36;;;;;;;17.02;12.27;;;;;;;17.95;79.05;94866.66;4194810;28;20040;-75
2023/09/20 03:11:38;;;;;;;16.77;12.05;;;;;;;17.92;78.72;94862.56;4175493;28;20060;-75
2023/09/20 03:13:40;;;;;;;14.93;11.45;;;;;;;17.90;78.69;94861.97;4173126;28;20045;-74
2023/09/20 03:15:43;;;;;;;16.58;11.15;;;;;;;17.93;78.96;94858.91;4193724;28;20147;-74
2023/09/20 03:17:47;;;;;;;22.52;11.55;;;;;;;17.93;78.39;94869.50;4191958;28;20113;-75
2023/09/20 03:19:53;;;;;;;18.33;11.60;;;;;;;17.93;78.74;94863.38;4174262;28;20085;-75
2023/09/20 03:21:55;;;;;;;15.05;11.35;;;;;;;17.88;78.37;94860.53;4189655;28;20155;-77
2023/09/20 03:23:59;;;;;;;16.75;12.13;;;;;;;17.86;78.33;94860.72;4192455;28;20053;-75
2023/09/20 03:26:01;;;;;;;18.05;11.13;;;;;;;17.89;78.36;94867.44;4192610;28;20047;-73
2023/09/20 03:28:04;;;;;;;18.58;12.15;;;;;;;17.87;78.29;94862.34;4192946;28;20052;-75
2023/09/20 03:30:31;;;;;;;18.13;12.82;;;;;;;17.87;78.25;94865.00;4166962;28;20104;-75
2023/09/20 03:32:29;;;;;;;16.98;11.48;;;;;;;17.88;77.84;94866.63;4181011;28;20128;-76
2023/09/20 03:34:31;;;;;;;17.42;10.57;;;;;;;17.85;77.51;94856.41;4185959;28;20051;-74
2023/09/20 03:36:33;;;;;;;14.90;10.57;;;;;;;17.88;77.53;94865.81;4193491;28;20040;-75
2023/09/20 03:38:35;;;;;;;18.33;12.02;;;;;;;17.81;78.00;94860.47;4192427;28;20537;-76
2023/09/20 03:40:40;;;;;;;17.00;11.93;;;;;;;17.72;78.04;94859.81;4168537;28;20057;-76
2023/09/20 03:42:42;;;;;;;16.80;12.52;;;;;;;17.69;78.06;94860.22;4188878;28;20135;-76
2023/09/20 03:44:45;;;;;;;16.70;12.00;;;;;;;17.71;78.15;94854.75;4190718;28;20054;-75
2023/09/20 03:46:47;;;;;;;14.50;11.02;;;;;;;17.69;78.23;94852.28;4193379;28;20048;-76
2023/09/20 03:48:49;;;;;;;16.52;10.75;;;;;;;17.66;77.84;94862.44;4174427;28;20124;-75
2023/09/20 03:50:51;;;;;;;13.00;9.77;;;;;;;17.65;77.80;94861.63;4194082;28;20058;-76
2023/09/20 03:52:54;;;;;;;14.40;9.60;;;;;;;17.66;77.80;94858.00;4180106;28;20052;-77
2023/09/20 03:54:57;;;;;;;13.70;10.10;;;;;;;17.44;77.68;94859.91;4178834;28;20053;-75
2023/09/20 03:56:59;;;;;;;13.65;9.73;;;;;;;17.31;78.49;94865.16;4187192;28;20053;-75
2023/09/20 03:59:01;;;;;;;13.48;9.73;;;;;;;17.26;79.01;94870.25;4181154;28;20128;-75
2023/09/20 04:01:04;;;;;;;15.13;10.32;;;;;;;17.23;78.84;94874.09;4190717;28;20056;-76
2023/09/20 04:03:13;;;;;;;12.60;9.90;;;;;;;17.13;78.87;94865.69;4159366;28;20081;-75
2023/09/20 04:05:16;;;;;;;14.85;11.00;;;;;;;17.03;79.67;94871.31;4184426;28;20067;-77
2023/09/20 04:07:36;;;;;;;15.30;10.55;;;;;;;17.04;79.69;94859.75;4192981;28;20063;-76
2023/09/20 04:09:37;;;;;;;16.15;11.07;;;;;;;17.11;79.39;94870.38;4193742;28;20048;-76
2023/09/20 04:11:40;;;;;;;12.70;10.65;;;;;;;17.16;79.33;94866.13;4194431;28;20056;-76
2023/09/20 04:13:42;;;;;;;14.90;11.02;;;;;;;17.20;79.24;94869.19;4176243;28;20053;-75
2023/09/20 04:15:45;;;;;;;13.10;10.50;;;;;;;17.25;78.77;94868.59;4177464;28;20040;-76
2023/09/20 04:17:48;;;;;;;26.15;12.05;;;;;;;17.29;78.49;94864.53;4183803;28;20135;-75
2023/09/20 04:19:50;;;;;;;28.17;11.57;;;;;;;17.22;78.78;94853.94;4193028;28;20135;-74
2023/09/20 04:21:52;;;;;;;19.35;12.43;;;;;;;17.27;79.10;94856.81;4195197;28;20493;-78
2023/09/20 04:23:54;;;;;;;20.85;14.13;;;;;;;17.31;78.76;94855.38;4199497;28;20177;-78
2023/09/20 04:25:55;;;;;;;31.27;15.73;;;;;;;17.31;78.98;94854.56;4199058;28;20472;-78
2023/09/20 04:27:57;;;;;;;21.23;14.80;;;;;;;17.31;78.92;94851.94;4194465;28;20139;-76
2023/09/20 04:29:59;;;;;;;25.75;14.73;;;;;;;17.32;78.77;94850.94;4196891;28;20610;-77
2023/09/20 04:32:01;;;;;;;22.73;15.15;;;;;;;17.33;78.91;94853.34;4190372;28;20483;-79
2023/09/20 04:34:05;;;;;;;25.80;15.95;;;;;;;17.33;79.01;94857.84;4182213;28;20053;-75
2023/09/20 04:36:07;;;;;;;24.95;16.23;;;;;;;17.36;79.09;94870.72;4196654;28;20040;-77
2023/09/20 04:38:09;;;;;;;22.20;15.88;;;;;;;17.37;78.88;94873.13;4196137;28;20107;-76
2023/09/20 04:40:12;;;;;;;26.17;16.42;;;;;;;17.35;78.79;94861.13;4196845;28;20426;-76
2023/09/20 04:42:14;;;;;;;22.98;16.52;;;;;;;17.41;78.71;94876.22;4196204;28;20135;-76
2023/09/20 04:44:16;;;;;;;25.08;17.50;;;;;;;17.44;78.56;94875.00;4190316;28;20488;-80
2023/09/20 04:46:18;;;;;;;26.52;19.08;;;;;;;17.42;78.72;94872.53;4196871;28;20155;-75
2023/09/20 04:48:20;;;;;;;27.52;17.92;;;;;;;17.39;78.73;94876.41;4185017;28;20139;-76
2023/09/20 04:50:22;;;;;;;25.63;18.75;;;;;;;17.35;78.45;94872.53;4181530;28;20053;-76
2023/09/20 04:52:24;;;;;;;25.42;18.17;;;;;;;17.30;78.61;94874.94;4190430;28;20123;-76
2023/09/20 04:54:27;;;;;;;27.33;18.90;;;;;;;17.31;78.96;94873.91;4196854;28;20133;-77
2023/09/20 04:56:29;;;;;;;23.38;17.45;;;;;;;17.33;79.21;94871.91;4196044;28;20507;-77
2023/09/20 04:58:31;;;;;;;21.33;17.15;;;;;;;17.37;79.06;94875.78;4198974;28;20534;-77
2023/09/20 05:00:37;;;;;;;23.08;17.95;;;;;;;17.43;79.18;94876.84;4187043;28;20118;-74
2023/09/20 05:02:39;;;;;;;24.45;17.85;;;;;;;17.43;78.15;94884.78;4177301;28;20053;-76
2023/09/20 05:04:42;;;;;;;25.20;17.48;;;;;;;17.37;78.43;94869.69;4161980;28;20460;-75
2023/09/20 05:06:45;;;;;;;26.98;19.20;;;;;;;17.41;78.53;94881.50;4196406;28;20056;-76
2023/09/20 05:08:49;;;;;;;26.45;19.95;;;;;;;17.47;78.11;94882.56;4196440;28;20135;-76
2023/09/20 05:10:51;;;;;;;22.45;18.88;;;;;;;17.49;78.10;94877.91;4196238;28;20214;-78
2023/09/20 05:12:53;;;;;;;23.52;17.85;;;;;;;17.58;77.94;94885.47;4201158;28;20101;-75
2023/09/20 05:14:55;;;;;;;21.80;17.90;;;;;;;17.64;77.42;94880.38;4196191;28;20090;-77
2023/09/20 05:16:57;;;;;;;22.73;17.65;;;;;;;17.68;77.11;94889.56;4174615;28;20124;-74
2023/09/20 05:18:59;;;;;;;22.75;16.40;;;;;;;17.78;77.41;94885.53;4194032;28;20047;-78
2023/09/20 05:21:01;;;;;;;23.40;17.35;;;;;;;17.85;77.03;94887.41;4195841;28;20120;-77
2023/09/20 05:23:04;;;;;;;20.52;17.05;;;;;;;17.90;76.67;94890.31;4175488;28;20508;-77
2023/09/20 05:25:09;;;;;;;23.63;17.30;;;;;;;17.94;76.43;94891.50;4192838;28;20048;-76
2023/09/20 05:27:11;;;;;;;24.15;17.85;;;;;;;18.03;75.99;94894.81;4170997;28;20473;-77
2023/09/20 05:29:13;;;;;;;23.85;17.90;;;;;;;18.10;75.76;94896.44;4192714;28;20414;-78
2023/09/20 05:31:15;;;;;;;21.00;17.35;;;;;;;18.15;75.77;94903.81;4194510;28;20049;-77
2023/09/20 05:33:17;;;;;;;24.83;19.08;;;;;;;18.16;76.59;94900.16;4192156;28;20078;-76
2023/09/20 05:35:19;;;;;;;25.00;17.58;;;;;;;18.07;76.89;94902.16;4177952;28;20480;-79
2023/09/20 05:37:22;;;;;;;21.48;13.05;;;;;;;18.03;75.63;94900.13;4193304;28;20155;-79
2023/09/20 05:39:24;;;;;;;17.65;13.40;;;;;;;18.07;75.31;94911.94;4196147;28;20060;-76
2023/09/20 05:41:28;;;;;;;20.90;14.43;;;;;;;18.04;74.82;94907.84;4192965;28;20156;-76
2023/09/20 05:43:30;;;;;;;18.55;15.27;;;;;;;18.05;74.75;94909.50;4193840;28;20044;-76
2023/09/20 05:45:31;;;;;;;19.17;14.98;;;;;;;18.06;74.97;94923.56;4189403;28;20485;-76
2023/09/20 05:47:35;;;;;;;22.08;13.00;;;;;;;18.10;74.76;94922.16;4188702;28;20110;-76
2023/09/20 05:49:37;;;;;;;15.20;11.48;;;;;;;18.11;74.17;94923.78;4181274;28;20045;-77
2023/09/20 05:51:38;;;;;;;16.02;13.07;;;;;;;18.11;74.42;94923.78;4166378;28;20508;-77
2023/09/20 05:53:44;;;;;;;18.25;14.63;;;;;;;18.16;74.37;94919.50;4169696;28;20180;-76
2023/09/20 05:55:46;;;;;;;23.33;19.90;;;;;;;18.19;74.51;94920.94;4191540;28;20467;-77
2023/09/20 05:57:48;;;;;;;20.80;18.60;;;;;;;18.25;74.44;94933.41;4192505;28;20052;-76
2023/09/20 05:59:52;;;;;;;22.38;19.58;;;;;;;18.29;74.45;94925.88;4172563;28;20474;-77
2023/09/20 06:01:59;;;;;;;28.77;23.92;;;;;;;18.25;74.42;94925.44;4188028;28;20074;-77
2023/09/20 06:04:03;;;;;;;26.77;23.00;;;;;;;18.14;74.85;94939.31;4193509;28;20051;-75
2023/09/20 06:06:07;;;;;;;27.63;22.30;;;;;;;17.79;75.78;94934.06;4194105;28;20120;-76
2023/09/20 06:08:11;;;;;;;28.70;24.95;;;;;;;17.61;76.62;94927.44;4194921;28;20056;-77
2023/09/20 06:10:16;;;;;;;30.63;25.55;;;;;;;17.64;77.15;94925.41;4185918;28;20053;-77
2023/09/20 06:12:18;;;;;;;27.10;24.20;;;;;;;17.78;77.30;94924.47;4187656;28;20132;-76
2023/09/20 06:14:22;;;;;;;26.95;22.95;;;;;;;17.91;76.83;94919.22;4184348;28;20080;-77
2023/09/20 06:16:24;;;;;;;;;;;;;;;18.06;76.01;94923.56;4190352;28;20055;-76
2023/09/20 06:18:25;;;;;;;27.42;22.13;;;;;;;18.22;75.52;94931.16;4190063;28;19931;-77
2023/09/20 06:20:27;;;;;;;25.42;21.67;;;;;;;18.33;75.25;94929.75;4187900;28;20052;-75
2023/09/20 06:22:30;;;;;;;26.77;20.98;;;;;;;18.46;74.47;94931.63;4186238;28;20063;-78
2023/09/20 06:24:31;;;;;;;23.92;21.40;;;;;;;18.53;74.58;94929.78;4172697;28;20389;-75
2023/09/20 06:26:34;;;;;;;27.60;20.52;;;;;;;18.57;74.45;94939.78;4190044;28;20090;-77
2023/09/20 06:28:36;;;;;;;23.65;21.05;;;;;;;18.66;74.59;94931.63;4197266;28;20510;-75
2023/09/20 06:30:38;;;;;;;25.00;20.85;;;;;;;18.68;74.33;94935.72;4205665;28;20051;-77
2023/09/20 06:32:44;;;;;;;24.38;19.17;;;;;;;18.76;74.00;94932.06;4174676;28;20424;-77
2023/09/20 06:34:46;;;;;;;24.13;20.02;;;;;;;18.76;73.61;94929.41;4192933;28;20072;-79
2023/09/20 06:37:00;;;;;;;24.27;19.52;;;;;;;18.81;73.76;94927.78;4194234;28;20048;-78
2023/09/20 06:39:05;;;;;;;29.02;22.52;;;;;;;18.86;73.43;94939.63;4193782;28;20110;-78
2023/09/20 06:41:09;;;;;;;30.13;23.48;;;;;;;18.85;73.35;94940.66;4182131;28;20064;-76
2023/09/20 06:43:13;;;;;;;27.20;23.35;;;;;;;18.93;73.42;94935.13;4186060;28;20210;-76
2023/09/20 06:45:17;;;;;;;27.90;22.92;;;;;;;19.00;72.97;94941.25;4176323;28;20084;-78
2023/09/20 06:47:18;;;;;;;24.42;21.77;;;;;;;19.01;72.92;94940.22;4192472;28;20064;-79
2023/09/20 06:49:21;;;;;;;28.25;22.75;;;;;;;18.94;73.36;94939.41;4187776;28;20543;-75
2023/09/20 06:51:23;;;;;;;27.05;23.65;;;;;;;18.92;73.32;94933.50;4180692;28;20049;-76
2023/09/20 06:53:25;;;;;;;26.90;23.83;;;;;;;19.02;73.28;94947.19;4192146;28;20409;-76
2023/09/20 06:55:28;;;;;;;27.77;24.42;;;;;;;19.12;72.95;94947.59;4185426;28;20052;-76
2023/09/20 06:57:30;;;;;;;31.13;25.00;;;;;;;19.18;72.81;94941.44;4191939;28;20129;-76
2023/09/20 06:59:37;;;;;;;29.23;25.95;;;;;;;19.24;72.10;94951.22;4191053;28;20053;-76
2023/09/20 07:01:39;;;;;;;27.73;24.52;;;;;;;19.32;71.82;94952.06;4193472;28;20114;-77
2023/09/20 07:03:42;;;;;;;29.42;24.80;;;;;;;19.32;71.68;94952.88;4172269;28;20101;-75
2023/09/20 07:05:44;;;;;;;27.30;24.45;;;;;;;19.39;71.63;94950.19;4175448;28;20048;-76
2023/09/20 07:07:47;;;;;;;30.00;24.55;;;;;;;19.39;71.18;94952.84;4181514;28;20102;-77
2023/09/20 07:09:49;;;;;;;26.60;23.85;;;;;;;19.43;71.30;94946.91;4181523;28;20543;-77
2023/09/20 07:11:51;;;;;;;28.48;25.45;;;;;;;19.49;71.15;94945.28;4191345;28;20044;-77
2023/09/20 07:13:53;;;;;;;30.20;25.77;;;;;;;19.56;71.36;94946.06;4192234;28;20130;-78
2023/09/20 07:15:55;;;;;;;28.02;24.48;;;;;;;19.63;71.15;94954.81;4192667;28;20044;-77
2023/09/20 07:18:00;;;;;;;31.85;26.15;;;;;;;19.62;71.31;94953.19;4192016;28;20476;-77
2023/09/20 07:20:14;;;;;;;30.55;27.35;;;;;;;19.51;71.51;94963.63;4176116;28;20236;-77
2023/09/20 07:22:16;;;;;;;31.50;25.85;;;;;;;19.55;71.48;94963.03;4193256;28;21598;-77
2023/09/20 07:24:24;;;;;;;28.98;26.02;;;;;;;19.64;71.36;94955.66;4193867;28;20291;-76
2023/09/20 07:26:26;;;;;;;29.90;25.65;;;;;;;19.76;71.02;94963.81;4191401;28;20075;-76
2023/09/20 07:28:31;;;;;;;27.40;24.42;;;;;;;19.89;70.22;94962.97;4185579;28;20048;-77
2023/09/20 07:30:40;;;;;;;26.25;23.52;;;;;;;20.15;69.59;94967.34;4183661;28;20074;-76
2023/09/20 07:32:47;;;;;;;28.73;24.20;;;;;;;20.28;69.21;94969.94;4172772;28;20053;-75
2023/09/20 07:35:19;;;;;;;31.70;27.98;;;;;;;20.19;69.05;94968.56;4185859;28;20052;-76
2023/09/20 07:37:21;;;;;;;37.22;33.17;;;;;;;19.75;70.18;94967.50;4183657;28;20047;-76
2023/09/20 07:39:23;;;;;;;39.30;32.40;;;;;;;19.28;71.49;94969.44;4187445;28;20365;-77
2023/09/20 07:41:25;;;;;;;36.78;32.80;;;;;;;19.13;72.33;94970.44;4184064;28;20537;-80
2023/09/20 07:43:28;;;;;;;35.58;31.63;;;;;;;19.00;73.12;94978.44;4189744;28;20716;-76
2023/09/20 07:45:41;;;;;;;47.75;36.45;;;;;;;19.15;72.67;94973.72;4184525;28;20059;-78
2023/09/20 07:47:44;;;;;;;32.47;28.67;;;;;;;19.19;72.33;94966.97;4173291;28;20045;-76
2023/09/20 07:49:47;;;;;;;33.30;27.48;;;;;;;19.40;72.05;94967.75;4191877;28;20045;-78
2023/09/20 07:51:50;;;;;;;35.28;28.23;;;;;;;19.63;71.00;94961.97;4189839;28;20515;-77
2023/09/20 07:53:54;;;;;;;53.05;36.42;;;;;;;19.54;70.70;94965.91;4188942;28;20056;-77
2023/09/20 07:56:03;;;;;;;37.65;30.02;;;;;;;19.59;70.62;94974.06;4191346;28;20102;-76
2023/09/20 07:58:05;;;;;;;32.80;27.70;;;;;;;19.56;70.51;94969.16;4161839;28;20133;-75
2023/09/20 08:00:10;;;;;;;37.22;28.77;;;;;;;19.55;70.27;94962.19;4188067;28;20049;-75
2023/09/20 08:02:15;;;;;;;37.35;27.98;;;;;;;19.71;71.21;94963.66;4177185;28;20281;-78
2023/09/20 08:04:17;;;;;;;31.83;27.00;;;;;;;19.97;70.05;94968.84;4179292;28;20167;-76
2023/09/20 08:06:24;;;;;;;33.13;26.10;;;;;;;20.17;69.16;94958.13;4189571;28;20045;-75
2023/09/20 08:08:26;;;;;;;37.40;26.50;;;;;;;20.36;68.30;94958.25;4154783;28;20426;-76
2023/09/20 08:10:28;;;;;;;34.03;25.88;;;;;;;20.39;68.83;94960.47;4197755;28;20522;-76
2023/09/20 08:12:31;;;;;;;30.30;23.73;;;;;;;20.21;67.90;94953.19;4196795;28;20430;-77
2023/09/20 08:14:33;;;;;;;34.13;25.10;;;;;;;19.85;69.60;94965.22;4190113;28;20060;-76
2023/09/20 08:16:35;;;;;;;35.42;25.23;;;;;;;19.78;70.07;94956.44;4186447;28;20504;-78
2023/09/20 08:21:01;;;;;;;40.40;24.52;;;;;;;19.96;69.65;94961.06;4190141;28;20399;-75
2023/09/20 09:00:46;;;;;;;23.73;17.02;;;;;;;21.52;63.16;94937.50;4179807;28;20483;-79
2023/09/20 09:02:51;;;;;;;28.10;16.58;;;;;;;21.28;64.41;94938.09;4177608;28;20075;-76
2023/09/20 09:04:54;;;;;;;25.17;16.63;;;;;;;21.39;64.48;94938.44;4196595;28;20056;-77
2023/09/20 09:06:56;;;;;;;24.08;15.85;;;;;;;21.66;64.12;94934.47;4179455;28;20447;-76
2023/09/20 09:08:58;;;;;;;22.98;15.75;;;;;;;21.94;63.32;94929.63;4195444;28;20098;-77
2023/09/20 09:11:00;;;;;;;25.70;17.52;;;;;;;22.09;62.38;94930.88;4193254;28;20123;-76
2023/09/20 09:13:02;;;;;;;20.75;16.88;;;;;;;22.18;61.95;94928.72;4188210;28;20060;-74
2023/09/20 09:15:05;;;;;;;29.35;19.73;;;;;;;22.23;61.71;94933.41;4195740;28;20052;-76
2023/09/20 09:17:08;;;;;;;25.83;18.25;;;;;;;22.16;61.41;94928.13;4189100;28;20052;-77
2023/09/20 09:19:10;;;;;;;22.88;17.88;;;;;;;21.90;61.79;94929.28;4198041;28;20090;-76
2023/09/20 09:21:14;;;;;;;22.48;15.95;;;;;;;21.84;62.24;94928.31;4191046;28;20052;-77
2023/09/20 09:23:31;;;;;;;20.98;15.77;;;;;;;21.67;62.70;94940.63;4209901;28;20056;-75
2023/09/20 09:25:35;;;;;;;19.38;15.80;;;;;;;21.80;61.82;94927.13;4183723;28;20115;-77
2023/09/20 09:27:37;;;;;;;20.88;15.23;;;;;;;21.84;62.34;94933.66;4187400;28;20051;-75
2023/09/20 09:29:41;;;;;;;17.35;13.93;;;;;;;21.86;62.42;94931.56;4199892;28;20056;-75
2023/09/20 09:31:50;;;;;;;20.10;14.68;;;;;;;22.13;62.05;94930.41;4211171;28;20048;-76
2023/09/20 09:33:52;;;;;;;15.43;13.82;;;;;;;22.48;61.14;94934.09;4197624;28;20506;-74
2023/09/20 09:35:54;;;;;;;19.17;14.80;;;;;;;22.82;60.29;94918.38;4195364;28;20107;-75
2023/09/20 09:38:00;;;;;;;20.20;13.95;;;;;;;23.16;59.18;94923.19;4194177;28;20036;-77
2023/09/20 09:40:04;;;;;;;18.90;13.82;;;;;;;23.36;58.42;94914.81;4179849;28;20431;-75
2023/09/20 09:42:07;;;;;;;25.45;14.35;;;;;;;23.51;58.03;94915.97;4179275;28;20048;-77
2023/09/20 09:44:10;;;;;;;18.70;14.43;;;;;;;23.64;57.83;94908.72;4197248;28;20181;-82
2023/09/20 09:46:12;;;;;;;20.17;15.18;;;;;;;23.75;56.65;94917.78;4173671;28;20095;-76
2023/09/20 09:48:16;;;;;;;19.58;14.43;;;;;;;23.79;56.66;94910.94;4185353;28;20045;-73
2023/09/20 09:50:18;;;;;;;18.95;16.27;;;;;;;23.75;57.17;94915.09;4174461;28;20067;-76
2023/09/20 09:52:25;;;;;;;16.50;11.48;;;;;;;23.89;56.44;94914.63;4174422;28;20049;-76
2023/09/20 09:54:28;;;;;;;11.90;8.32;;;;;;;23.91;53.79;94915.22;4193254;28;20182;-75
2023/09/20 09:56:30;;;;;;;12.82;7.32;;;;;;;23.96;53.50;94914.50;4170477;28;20049;-77
2023/09/20 09:58:33;;;;;;;12.88;8.07;;;;;;;24.16;52.85;94906.06;4187454;28;20144;-77
2023/09/20 10:00:39;;;;;;;12.65;7.47;;;;;;;24.37;52.33;94904.59;4175735;28;20045;-75
2023/09/20 10:02:42;;;;;;;18.20;9.15;;;;;;;24.41;52.86;94903.03;4188284;28;20511;-77
2023/09/20 10:05:00;;;;;;;13.88;8.50;;;;;;;24.59;52.57;94907.41;4173135;28;20518;-77
2023/09/20 10:07:15;;;;;;;13.15;8.40;;;;;;;24.71;52.61;94901.97;4195660;28;20053;-77
2023/09/20 10:09:20;;;;;;;9.65;7.40;;;;;;;24.77;52.07;94902.88;4190407;28;20124;-77